sensor_id;sensor_type;location;lat;lon;timestamp;temperature;humidity
480;DHT22;226;48.606;9.096;2022-11-20T00:01:10;5.40;91.60
480;DHT22;226;48.606;9.096;2022-11-20T00:03:39;5.30;91.20
480;DHT22;226;48.606;9.096;2022-11-20T00:06:09;5.10;90.20
480;DHT22;226;48.606;9.096;2022-11-20T00:08:37;5.10;90.00
480;DHT22;226;48.606;9.096;2022-11-20T00:11:06;5.10;90.50
480;DHT22;226;48.606;9.096;2022-11-20T00:13:43;5.00;90.20
480;DHT22;226;48.606;9.096;2022-11-20T00:16:14;5.20;90.60
480;DHT22;226;48.606;9.096;2022-11-20T00:18:43;5.00;90.40
480;DHT22;226;48.606;9.096;2022-11-20T00:21:13;4.80;90.60
480;DHT22;226;48.606;9.096;2022-11-20T00:23:42;5.10;90.00
480;DHT22;226;48.606;9.096;2022-11-20T00:26:12;4.70;90.40
480;DHT22;226;48.606;9.096;2022-11-20T00:28:43;4.80;90.60
480;DHT22;226;48.606;9.096;2022-11-20T00:31:12;5.60;91.00
480;DHT22;226;48.606;9.096;2022-11-20T00:33:41;4.30;91.50
480;DHT22;226;48.606;9.096;2022-11-20T00:36:10;4.00;92.00
480;DHT22;226;48.606;9.096;2022-11-20T00:38:38;4.30;92.50
480;DHT22;226;48.606;9.096;2022-11-20T00:41:08;4.10;93.00
480;DHT22;226;48.606;9.096;2022-11-20T00:43:37;4.00;92.60
480;DHT22;226;48.606;9.096;2022-11-20T00:46:08;4.50;92.90
480;DHT22;226;48.606;9.096;2022-11-20T00:48:36;4.00;92.80
480;DHT22;226;48.606;9.096;2022-11-20T00:51:05;4.10;93.40
480;DHT22;226;48.606;9.096;2022-11-20T00:53:33;4.00;93.60
480;DHT22;226;48.606;9.096;2022-11-20T00:56:02;4.20;93.70
480;DHT22;226;48.606;9.096;2022-11-20T00:58:32;4.20;93.90
480;DHT22;226;48.606;9.096;2022-11-20T01:01:01;4.00;93.40
480;DHT22;226;48.606;9.096;2022-11-20T01:03:32;4.10;93.30
480;DHT22;226;48.606;9.096;2022-11-20T01:06:01;4.00;93.40
480;DHT22;226;48.606;9.096;2022-11-20T01:08:31;4.00;93.40
480;DHT22;226;48.606;9.096;2022-11-20T01:11:00;4.00;93.90
480;DHT22;226;48.606;9.096;2022-11-20T01:13:29;4.00;93.70
480;DHT22;226;48.606;9.096;2022-11-20T01:16:08;4.00;93.00
480;DHT22;226;48.606;9.096;2022-11-20T01:18:39;4.20;92.40
480;DHT22;226;48.606;9.096;2022-11-20T01:21:09;3.80;92.50
480;DHT22;226;48.606;9.096;2022-11-20T01:23:39;3.80;93.70
480;DHT22;226;48.606;9.096;2022-11-20T01:26:08;3.80;94.10
480;DHT22;226;48.606;9.096;2022-11-20T01:28:37;4.60;94.20
480;DHT22;226;48.606;9.096;2022-11-20T01:31:11;3.60;94.10
480;DHT22;226;48.606;9.096;2022-11-20T01:33:41;3.60;94.40
480;DHT22;226;48.606;9.096;2022-11-20T01:36:10;3.60;94.80
480;DHT22;226;48.606;9.096;2022-11-20T01:38:38;3.50;94.50
480;DHT22;226;48.606;9.096;2022-11-20T01:41:07;3.20;94.70
480;DHT22;226;48.606;9.096;2022-11-20T01:43:35;3.30;95.60
480;DHT22;226;48.606;9.096;2022-11-20T01:46:14;3.30;96.20
480;DHT22;226;48.606;9.096;2022-11-20T01:48:56;3.00;96.60
480;DHT22;226;48.606;9.096;2022-11-20T01:51:28;2.90;97.20
480;DHT22;226;48.606;9.096;2022-11-20T01:54:00;3.10;98.40
480;DHT22;226;48.606;9.096;2022-11-20T01:56:31;3.20;98.60
480;DHT22;226;48.606;9.096;2022-11-20T01:59:04;3.10;97.90
480;DHT22;226;48.606;9.096;2022-11-20T02:01:33;3.20;97.70
480;DHT22;226;48.606;9.096;2022-11-20T02:04:03;3.10;97.10
480;DHT22;226;48.606;9.096;2022-11-20T02:06:35;3.00;96.70
480;DHT22;226;48.606;9.096;2022-11-20T02:09:03;2.90;95.70
480;DHT22;226;48.606;9.096;2022-11-20T02:11:32;2.90;96.50
480;DHT22;226;48.606;9.096;2022-11-20T02:14:00;2.90;96.50
480;DHT22;226;48.606;9.096;2022-11-20T02:16:29;3.10;96.90
480;DHT22;226;48.606;9.096;2022-11-20T02:19:00;4.20;97.50
480;DHT22;226;48.606;9.096;2022-11-20T02:21:35;2.80;96.90
480;DHT22;226;48.606;9.096;2022-11-20T02:24:08;2.90;97.40
480;DHT22;226;48.606;9.096;2022-11-20T02:26:45;2.90;97.10
480;DHT22;226;48.606;9.096;2022-11-20T02:29:16;2.90;96.90
480;DHT22;226;48.606;9.096;2022-11-20T02:31:45;3.10;96.80
480;DHT22;226;48.606;9.096;2022-11-20T02:34:13;2.90;95.60
480;DHT22;226;48.606;9.096;2022-11-20T02:36:42;2.70;95.60
480;DHT22;226;48.606;9.096;2022-11-20T02:39:11;2.80;96.90
480;DHT22;226;48.606;9.096;2022-11-20T02:41:43;3.00;96.90
480;DHT22;226;48.606;9.096;2022-11-20T02:44:11;2.80;95.20
480;DHT22;226;48.606;9.096;2022-11-20T02:46:39;2.60;96.30
480;DHT22;226;48.606;9.096;2022-11-20T02:49:07;2.50;97.40
480;DHT22;226;48.606;9.096;2022-11-20T02:51:35;2.60;98.10
480;DHT22;226;48.606;9.096;2022-11-20T02:54:04;2.80;97.70
480;DHT22;226;48.606;9.096;2022-11-20T02:56:33;3.10;97.80
480;DHT22;226;48.606;9.096;2022-11-20T02:59:01;3.00;97.80
480;DHT22;226;48.606;9.096;2022-11-20T03:01:29;3.30;97.90
480;DHT22;226;48.606;9.096;2022-11-20T03:03:57;3.40;98.00
480;DHT22;226;48.606;9.096;2022-11-20T03:06:25;2.90;98.10
480;DHT22;226;48.606;9.096;2022-11-20T03:08:53;3.00;98.40
480;DHT22;226;48.606;9.096;2022-11-20T03:11:21;3.20;98.50
480;DHT22;226;48.606;9.096;2022-11-20T03:13:50;3.50;98.70
480;DHT22;226;48.606;9.096;2022-11-20T03:16:20;3.40;97.30
480;DHT22;226;48.606;9.096;2022-11-20T03:18:49;3.50;95.40
480;DHT22;226;48.606;9.096;2022-11-20T03:21:19;3.60;94.20
480;DHT22;226;48.606;9.096;2022-11-20T03:23:47;3.50;93.30
480;DHT22;226;48.606;9.096;2022-11-20T03:26:17;3.40;94.20
480;DHT22;226;48.606;9.096;2022-11-20T03:28:47;3.50;94.20
480;DHT22;226;48.606;9.096;2022-11-20T03:31:18;3.40;94.70
480;DHT22;226;48.606;9.096;2022-11-20T03:33:47;3.30;93.80
480;DHT22;226;48.606;9.096;2022-11-20T03:36:17;3.40;94.30
480;DHT22;226;48.606;9.096;2022-11-20T03:38:45;3.50;94.00
480;DHT22;226;48.606;9.096;2022-11-20T03:41:15;3.50;92.80
480;DHT22;226;48.606;9.096;2022-11-20T03:43:47;3.50;92.90
480;DHT22;226;48.606;9.096;2022-11-20T03:46:17;3.60;92.60
480;DHT22;226;48.606;9.096;2022-11-20T03:48:45;3.40;93.40
480;DHT22;226;48.606;9.096;2022-11-20T03:51:18;3.40;93.80
480;DHT22;226;48.606;9.096;2022-11-20T03:53:48;3.40;92.90
480;DHT22;226;48.606;9.096;2022-11-20T03:56:18;3.70;93.00
480;DHT22;226;48.606;9.096;2022-11-20T03:58:47;3.50;92.40
480;DHT22;226;48.606;9.096;2022-11-20T04:01:18;3.40;92.80
480;DHT22;226;48.606;9.096;2022-11-20T04:03:46;3.40;93.00
480;DHT22;226;48.606;9.096;2022-11-20T04:06:16;3.60;94.20
480;DHT22;226;48.606;9.096;2022-11-20T04:08:45;3.60;94.50
480;DHT22;226;48.606;9.096;2022-11-20T04:11:21;3.50;94.90
480;DHT22;226;48.606;9.096;2022-11-20T04:13:51;3.40;95.70
480;DHT22;226;48.606;9.096;2022-11-20T04:16:22;3.70;93.30
480;DHT22;226;48.606;9.096;2022-11-20T04:18:52;3.80;92.30
480;DHT22;226;48.606;9.096;2022-11-20T04:21:21;3.90;91.40
480;DHT22;226;48.606;9.096;2022-11-20T04:23:50;4.30;89.40
480;DHT22;226;48.606;9.096;2022-11-20T04:26:20;4.20;87.10
480;DHT22;226;48.606;9.096;2022-11-20T04:28:48;4.40;85.60
480;DHT22;226;48.606;9.096;2022-11-20T04:31:19;4.30;84.10
480;DHT22;226;48.606;9.096;2022-11-20T04:33:49;4.60;85.40
480;DHT22;226;48.606;9.096;2022-11-20T04:36:18;4.80;84.80
480;DHT22;226;48.606;9.096;2022-11-20T04:38:50;4.70;82.20
480;DHT22;226;48.606;9.096;2022-11-20T04:41:24;4.80;78.60
480;DHT22;226;48.606;9.096;2022-11-20T04:43:54;4.70;79.20
480;DHT22;226;48.606;9.096;2022-11-20T04:46:27;5.10;80.30
480;DHT22;226;48.606;9.096;2022-11-20T04:48:56;4.80;78.40
480;DHT22;226;48.606;9.096;2022-11-20T04:51:24;4.80;79.30
480;DHT22;226;48.606;9.096;2022-11-20T04:53:53;4.80;79.40
480;DHT22;226;48.606;9.096;2022-11-20T04:56:21;5.10;77.60
480;DHT22;226;48.606;9.096;2022-11-20T04:58:49;5.30;76.00
480;DHT22;226;48.606;9.096;2022-11-20T05:01:18;5.00;74.90
480;DHT22;226;48.606;9.096;2022-11-20T05:03:47;5.50;74.30
480;DHT22;226;48.606;9.096;2022-11-20T05:06:19;5.00;75.10
480;DHT22;226;48.606;9.096;2022-11-20T05:08:47;5.00;73.60
480;DHT22;226;48.606;9.096;2022-11-20T05:11:18;5.00;71.90
480;DHT22;226;48.606;9.096;2022-11-20T05:13:46;5.00;74.20
480;DHT22;226;48.606;9.096;2022-11-20T05:16:16;5.20;73.10
480;DHT22;226;48.606;9.096;2022-11-20T05:18:45;5.00;72.30
480;DHT22;226;48.606;9.096;2022-11-20T05:21:14;5.30;72.40
480;DHT22;226;48.606;9.096;2022-11-20T05:23:44;5.20;71.30
480;DHT22;226;48.606;9.096;2022-11-20T05:26:14;5.30;70.60
480;DHT22;226;48.606;9.096;2022-11-20T05:28:43;5.40;70.80
480;DHT22;226;48.606;9.096;2022-11-20T05:31:12;5.40;70.90
480;DHT22;226;48.606;9.096;2022-11-20T05:33:41;5.40;71.30
480;DHT22;226;48.606;9.096;2022-11-20T05:36:10;5.30;71.70
480;DHT22;226;48.606;9.096;2022-11-20T05:38:38;5.50;70.00
480;DHT22;226;48.606;9.096;2022-11-20T05:41:09;5.40;69.10
480;DHT22;226;48.606;9.096;2022-11-20T05:43:39;5.50;68.20
480;DHT22;226;48.606;9.096;2022-11-20T05:46:09;5.50;65.00
480;DHT22;226;48.606;9.096;2022-11-20T05:48:38;5.60;67.20
480;DHT22;226;48.606;9.096;2022-11-20T05:51:07;6.00;66.10
480;DHT22;226;48.606;9.096;2022-11-20T05:53:36;5.90;67.20
480;DHT22;226;48.606;9.096;2022-11-20T05:56:13;5.90;65.40
480;DHT22;226;48.606;9.096;2022-11-20T05:58:42;5.50;64.90
480;DHT22;226;48.606;9.096;2022-11-20T06:01:12;5.70;66.90
480;DHT22;226;48.606;9.096;2022-11-20T06:03:41;6.90;67.10
480;DHT22;226;48.606;9.096;2022-11-20T06:06:13;5.60;64.30
480;DHT22;226;48.606;9.096;2022-11-20T06:08:41;5.40;64.20
480;DHT22;226;48.606;9.096;2022-11-20T06:11:11;5.20;66.30
480;DHT22;226;48.606;9.096;2022-11-20T06:13:40;5.30;66.30
480;DHT22;226;48.606;9.096;2022-11-20T06:16:09;5.10;68.20
480;DHT22;226;48.606;9.096;2022-11-20T06:18:38;5.30;68.10
480;DHT22;226;48.606;9.096;2022-11-20T06:21:08;5.00;69.40
480;DHT22;226;48.606;9.096;2022-11-20T06:23:37;5.00;69.40
480;DHT22;226;48.606;9.096;2022-11-20T06:26:07;5.10;69.40
480;DHT22;226;48.606;9.096;2022-11-20T06:28:36;5.10;68.30
480;DHT22;226;48.606;9.096;2022-11-20T06:31:06;5.00;68.40
480;DHT22;226;48.606;9.096;2022-11-20T06:33:34;5.20;68.50
480;DHT22;226;48.606;9.096;2022-11-20T06:36:02;5.30;68.60
480;DHT22;226;48.606;9.096;2022-11-20T06:38:37;5.20;68.50
480;DHT22;226;48.606;9.096;2022-11-20T06:41:06;5.30;67.90
480;DHT22;226;48.606;9.096;2022-11-20T06:43:35;5.30;68.30
480;DHT22;226;48.606;9.096;2022-11-20T06:46:04;5.30;66.00
480;DHT22;226;48.606;9.096;2022-11-20T06:48:32;5.30;66.10
480;DHT22;226;48.606;9.096;2022-11-20T06:51:03;5.60;68.70
480;DHT22;226;48.606;9.096;2022-11-20T06:53:31;5.40;67.70
480;DHT22;226;48.606;9.096;2022-11-20T06:55:59;5.40;66.80
480;DHT22;226;48.606;9.096;2022-11-20T06:58:29;5.60;67.90
480;DHT22;226;48.606;9.096;2022-11-20T07:00:59;5.50;66.30
480;DHT22;226;48.606;9.096;2022-11-20T07:03:27;5.50;64.00
480;DHT22;226;48.606;9.096;2022-11-20T07:05:56;5.60;62.60
480;DHT22;226;48.606;9.096;2022-11-20T07:08:24;5.60;62.80
480;DHT22;226;48.606;9.096;2022-11-20T07:10:56;5.70;62.20
480;DHT22;226;48.606;9.096;2022-11-20T07:13:24;5.60;62.70
480;DHT22;226;48.606;9.096;2022-11-20T07:15:52;5.80;62.50
480;DHT22;226;48.606;9.096;2022-11-20T07:18:22;5.70;62.50
480;DHT22;226;48.606;9.096;2022-11-20T07:20:49;5.50;62.40
480;DHT22;226;48.606;9.096;2022-11-20T07:23:17;5.50;63.90
480;DHT22;226;48.606;9.096;2022-11-20T07:25:46;5.70;64.60
480;DHT22;226;48.606;9.096;2022-11-20T07:28:14;5.70;63.80
480;DHT22;226;48.606;9.096;2022-11-20T07:30:42;6.10;64.20
480;DHT22;226;48.606;9.096;2022-11-20T07:33:10;5.90;62.50
480;DHT22;226;48.606;9.096;2022-11-20T07:35:39;5.90;61.40
480;DHT22;226;48.606;9.096;2022-11-20T07:38:07;5.90;62.10
480;DHT22;226;48.606;9.096;2022-11-20T07:40:35;6.10;63.10
480;DHT22;226;48.606;9.096;2022-11-20T07:43:03;6.30;60.90
480;DHT22;226;48.606;9.096;2022-11-20T07:45:31;6.00;59.10
480;DHT22;226;48.606;9.096;2022-11-20T07:47:59;5.90;60.00
480;DHT22;226;48.606;9.096;2022-11-20T07:50:27;5.80;62.10
480;DHT22;226;48.606;9.096;2022-11-20T07:53:02;6.00;61.00
480;DHT22;226;48.606;9.096;2022-11-20T07:55:30;5.80;60.40
480;DHT22;226;48.606;9.096;2022-11-20T07:57:59;6.10;61.40
480;DHT22;226;48.606;9.096;2022-11-20T08:00:27;6.00;64.00
480;DHT22;226;48.606;9.096;2022-11-20T08:02:55;5.90;65.70
480;DHT22;226;48.606;9.096;2022-11-20T08:05:23;6.10;64.70
480;DHT22;226;48.606;9.096;2022-11-20T08:07:51;6.20;62.00
480;DHT22;226;48.606;9.096;2022-11-20T08:10:21;6.90;63.70
480;DHT22;226;48.606;9.096;2022-11-20T08:12:50;6.40;61.80
480;DHT22;226;48.606;9.096;2022-11-20T08:15:37;6.20;61.60
480;DHT22;226;48.606;9.096;2022-11-20T08:18:07;6.30;61.50
480;DHT22;226;48.606;9.096;2022-11-20T08:20:55;6.30;61.50
480;DHT22;226;48.606;9.096;2022-11-20T08:23:23;6.50;63.90
480;DHT22;226;48.606;9.096;2022-11-20T08:25:52;6.40;61.50
480;DHT22;226;48.606;9.096;2022-11-20T08:28:20;6.80;61.80
480;DHT22;226;48.606;9.096;2022-11-20T08:30:49;6.50;64.70
480;DHT22;226;48.606;9.096;2022-11-20T08:33:17;6.60;63.00
480;DHT22;226;48.606;9.096;2022-11-20T08:35:46;6.80;64.90
480;DHT22;226;48.606;9.096;2022-11-20T08:38:14;6.60;66.20
480;DHT22;226;48.606;9.096;2022-11-20T08:40:42;7.20;63.90
480;DHT22;226;48.606;9.096;2022-11-20T08:43:32;6.80;65.10
480;DHT22;226;48.606;9.096;2022-11-20T08:46:00;6.90;64.60
480;DHT22;226;48.606;9.096;2022-11-20T08:48:28;6.80;63.70
480;DHT22;226;48.606;9.096;2022-11-20T08:50:58;6.90;65.60
480;DHT22;226;48.606;9.096;2022-11-20T08:53:26;6.70;65.80
480;DHT22;226;48.606;9.096;2022-11-20T08:55:56;6.40;68.00
480;DHT22;226;48.606;9.096;2022-11-20T08:58:24;6.50;71.30
480;DHT22;226;48.606;9.096;2022-11-20T09:00:53;6.50;68.90
480;DHT22;226;48.606;9.096;2022-11-20T09:03:22;6.70;69.00
480;DHT22;226;48.606;9.096;2022-11-20T09:05:57;6.60;72.00
480;DHT22;226;48.606;9.096;2022-11-20T09:08:27;6.70;71.40
480;DHT22;226;48.606;9.096;2022-11-20T09:10:56;6.50;72.80
480;DHT22;226;48.606;9.096;2022-11-20T09:13:26;6.60;74.70
480;DHT22;226;48.606;9.096;2022-11-20T09:15:56;6.50;75.10
480;DHT22;226;48.606;9.096;2022-11-20T09:18:25;6.60;74.90
480;DHT22;226;48.606;9.096;2022-11-20T09:20:56;6.80;75.40
480;DHT22;226;48.606;9.096;2022-11-20T09:23:24;6.80;73.60
480;DHT22;226;48.606;9.096;2022-11-20T09:25:52;7.10;75.30
480;DHT22;226;48.606;9.096;2022-11-20T09:28:22;6.80;74.10
480;DHT22;226;48.606;9.096;2022-11-20T09:30:50;6.70;73.70
480;DHT22;226;48.606;9.096;2022-11-20T09:33:19;6.80;73.90
480;DHT22;226;48.606;9.096;2022-11-20T09:35:47;6.70;75.20
480;DHT22;226;48.606;9.096;2022-11-20T09:38:15;6.70;74.70
480;DHT22;226;48.606;9.096;2022-11-20T09:40:46;6.40;76.80
480;DHT22;226;48.606;9.096;2022-11-20T09:43:19;6.60;77.50
480;DHT22;226;48.606;9.096;2022-11-20T09:45:57;6.50;77.50
480;DHT22;226;48.606;9.096;2022-11-20T09:48:45;6.60;76.00
480;DHT22;226;48.606;9.096;2022-11-20T09:51:26;6.60;77.40
480;DHT22;226;48.606;9.096;2022-11-20T09:54:07;6.60;76.40
480;DHT22;226;48.606;9.096;2022-11-20T09:56:40;6.60;74.60
480;DHT22;226;48.606;9.096;2022-11-20T09:59:21;6.70;75.10
480;DHT22;226;48.606;9.096;2022-11-20T10:01:51;6.50;74.10
480;DHT22;226;48.606;9.096;2022-11-20T10:04:21;6.50;74.90
480;DHT22;226;48.606;9.096;2022-11-20T10:06:56;6.70;75.80
480;DHT22;226;48.606;9.096;2022-11-20T10:09:51;6.80;75.50
480;DHT22;226;48.606;9.096;2022-11-20T10:12:24;6.80;74.60
480;DHT22;226;48.606;9.096;2022-11-20T10:15:05;6.80;76.20
480;DHT22;226;48.606;9.096;2022-11-20T10:17:55;6.70;73.90
480;DHT22;226;48.606;9.096;2022-11-20T10:20:35;6.80;76.40
480;DHT22;226;48.606;9.096;2022-11-20T10:23:21;7.10;74.50
480;DHT22;226;48.606;9.096;2022-11-20T10:25:55;6.80;77.30
480;DHT22;226;48.606;9.096;2022-11-20T10:28:38;6.90;77.70
480;DHT22;226;48.606;9.096;2022-11-20T10:31:29;7.00;76.70
480;DHT22;226;48.606;9.096;2022-11-20T10:34:02;7.00;75.00
480;DHT22;226;48.606;9.096;2022-11-20T10:36:51;7.00;76.50
480;DHT22;226;48.606;9.096;2022-11-20T10:39:26;7.00;77.00
480;DHT22;226;48.606;9.096;2022-11-20T10:41:58;7.00;78.60
480;DHT22;226;48.606;9.096;2022-11-20T10:44:28;7.00;75.40
480;DHT22;226;48.606;9.096;2022-11-20T10:47:19;6.90;78.50
480;DHT22;226;48.606;9.096;2022-11-20T10:49:50;7.20;76.80
480;DHT22;226;48.606;9.096;2022-11-20T10:52:25;7.00;75.80
480;DHT22;226;48.606;9.096;2022-11-20T10:55:05;7.10;77.00
480;DHT22;226;48.606;9.096;2022-11-20T10:57:51;7.60;74.70
480;DHT22;226;48.606;9.096;2022-11-20T11:00:20;7.40;73.80
480;DHT22;226;48.606;9.096;2022-11-20T11:02:49;8.80;75.10
480;DHT22;226;48.606;9.096;2022-11-20T11:05:31;7.80;71.20
480;DHT22;226;48.606;9.096;2022-11-20T11:08:03;7.50;72.40
480;DHT22;226;48.606;9.096;2022-11-20T11:10:39;7.60;70.20
480;DHT22;226;48.606;9.096;2022-11-20T11:13:19;7.70;70.40
480;DHT22;226;48.606;9.096;2022-11-20T11:18:24;7.70;66.90
480;DHT22;226;48.606;9.096;2022-11-20T11:20:54;7.80;68.40
480;DHT22;226;48.606;9.096;2022-11-20T11:23:31;7.80;68.10
480;DHT22;226;48.606;9.096;2022-11-20T11:26:01;7.90;69.50
480;DHT22;226;48.606;9.096;2022-11-20T11:28:30;7.90;67.10
480;DHT22;226;48.606;9.096;2022-11-20T11:30:58;7.90;71.80
480;DHT22;226;48.606;9.096;2022-11-20T11:33:28;7.60;65.90
480;DHT22;226;48.606;9.096;2022-11-20T11:35:58;7.60;71.30
480;DHT22;226;48.606;9.096;2022-11-20T11:38:35;7.80;73.60
480;DHT22;226;48.606;9.096;2022-11-20T11:41:05;7.90;71.50
480;DHT22;226;48.606;9.096;2022-11-20T11:43:35;8.10;70.40
480;DHT22;226;48.606;9.096;2022-11-20T11:46:32;8.20;71.50
480;DHT22;226;48.606;9.096;2022-11-20T11:49:08;8.20;68.30
480;DHT22;226;48.606;9.096;2022-11-20T11:51:49;8.30;66.80
480;DHT22;226;48.606;9.096;2022-11-20T11:54:24;8.30;69.00
480;DHT22;226;48.606;9.096;2022-11-20T11:56:53;8.40;67.80
480;DHT22;226;48.606;9.096;2022-11-20T11:59:28;8.30;59.00
480;DHT22;226;48.606;9.096;2022-11-20T12:02:01;8.20;61.00
480;DHT22;226;48.606;9.096;2022-11-20T12:04:42;8.20;61.40
480;DHT22;226;48.606;9.096;2022-11-20T12:07:15;8.10;57.30
480;DHT22;226;48.606;9.096;2022-11-20T12:10:13;8.00;56.50
480;DHT22;226;48.606;9.096;2022-11-20T12:12:44;7.90;55.40
480;DHT22;226;48.606;9.096;2022-11-20T12:15:25;7.80;56.30
480;DHT22;226;48.606;9.096;2022-11-20T12:17:54;8.00;57.20
480;DHT22;226;48.606;9.096;2022-11-20T12:20:25;8.10;58.30
480;DHT22;226;48.606;9.096;2022-11-20T12:23:01;8.30;55.40
480;DHT22;226;48.606;9.096;2022-11-20T12:25:34;8.40;56.10
480;DHT22;226;48.606;9.096;2022-11-20T12:28:29;8.20;53.30
480;DHT22;226;48.606;9.096;2022-11-20T12:34:13;7.80;53.70
480;DHT22;226;48.606;9.096;2022-11-20T12:36:48;7.70;52.80
480;DHT22;226;48.606;9.096;2022-11-20T12:39:33;7.50;51.90
480;DHT22;226;48.606;9.096;2022-11-20T12:42:45;7.50;52.60
480;DHT22;226;48.606;9.096;2022-11-20T12:46:05;7.50;52.60
480;DHT22;226;48.606;9.096;2022-11-20T12:54:39;7.60;54.00
480;DHT22;226;48.606;9.096;2022-11-20T12:57:15;7.90;53.00
480;DHT22;226;48.606;9.096;2022-11-20T13:00:01;7.60;52.60
480;DHT22;226;48.606;9.096;2022-11-20T13:02:41;7.60;53.70
480;DHT22;226;48.606;9.096;2022-11-20T13:05:19;7.70;54.70
480;DHT22;226;48.606;9.096;2022-11-20T13:07:50;7.80;55.30
480;DHT22;226;48.606;9.096;2022-11-20T13:10:23;8.10;52.40
480;DHT22;226;48.606;9.096;2022-11-20T13:12:58;8.20;54.00
480;DHT22;226;48.606;9.096;2022-11-20T13:15:44;8.40;53.60
480;DHT22;226;48.606;9.096;2022-11-20T13:18:13;8.60;49.10
480;DHT22;226;48.606;9.096;2022-11-20T13:20:42;8.80;49.80
480;DHT22;226;48.606;9.096;2022-11-20T13:23:11;8.80;49.20
480;DHT22;226;48.606;9.096;2022-11-20T13:25:40;8.70;51.60
480;DHT22;226;48.606;9.096;2022-11-20T13:28:26;8.90;49.50
480;DHT22;226;48.606;9.096;2022-11-20T13:30:57;8.80;50.40
480;DHT22;226;48.606;9.096;2022-11-20T13:33:29;8.80;51.10
480;DHT22;226;48.606;9.096;2022-11-20T13:36:00;8.60;48.80
480;DHT22;226;48.606;9.096;2022-11-20T13:38:39;8.40;50.90
480;DHT22;226;48.606;9.096;2022-11-20T13:41:08;8.20;49.30
480;DHT22;226;48.606;9.096;2022-11-20T13:43:52;8.00;51.00
480;DHT22;226;48.606;9.096;2022-11-20T13:46:21;7.90;50.40
480;DHT22;226;48.606;9.096;2022-11-20T13:48:51;7.80;50.90
480;DHT22;226;48.606;9.096;2022-11-20T13:51:31;7.80;50.50
480;DHT22;226;48.606;9.096;2022-11-20T13:57:32;8.00;52.20
480;DHT22;226;48.606;9.096;2022-11-20T14:00:11;8.00;51.00
480;DHT22;226;48.606;9.096;2022-11-20T14:02:41;8.00;48.80
480;DHT22;226;48.606;9.096;2022-11-20T14:05:17;7.90;48.70
480;DHT22;226;48.606;9.096;2022-11-20T14:07:47;7.80;48.60
480;DHT22;226;48.606;9.096;2022-11-20T14:10:23;7.80;49.70
480;DHT22;226;48.606;9.096;2022-11-20T14:12:57;7.80;50.10
480;DHT22;226;48.606;9.096;2022-11-20T14:15:28;7.70;51.30
480;DHT22;226;48.606;9.096;2022-11-20T14:17:58;7.70;50.40
480;DHT22;226;48.606;9.096;2022-11-20T14:20:28;7.70;51.50
480;DHT22;226;48.606;9.096;2022-11-20T14:22:58;7.70;51.30
480;DHT22;226;48.606;9.096;2022-11-20T14:25:26;7.60;52.20
480;DHT22;226;48.606;9.096;2022-11-20T14:27:56;7.80;54.60
480;DHT22;226;48.606;9.096;2022-11-20T14:30:26;7.80;53.00
480;DHT22;226;48.606;9.096;2022-11-20T14:32:57;7.60;52.70
480;DHT22;226;48.606;9.096;2022-11-20T14:35:30;7.40;51.50
480;DHT22;226;48.606;9.096;2022-11-20T14:37:59;7.20;52.40
480;DHT22;226;48.606;9.096;2022-11-20T14:40:30;7.30;54.80
480;DHT22;226;48.606;9.096;2022-11-20T14:42:59;7.20;52.60
480;DHT22;226;48.606;9.096;2022-11-20T14:45:27;7.10;52.90
480;DHT22;226;48.606;9.096;2022-11-20T14:47:58;7.00;52.80
480;DHT22;226;48.606;9.096;2022-11-20T14:50:28;7.00;55.20
480;DHT22;226;48.606;9.096;2022-11-20T14:52:58;7.00;53.50
480;DHT22;226;48.606;9.096;2022-11-20T14:55:31;7.00;54.30
480;DHT22;226;48.606;9.096;2022-11-20T14:58:01;7.20;54.60
480;DHT22;226;48.606;9.096;2022-11-20T15:00:30;7.20;55.80
480;DHT22;226;48.606;9.096;2022-11-20T15:03:00;7.20;57.00
480;DHT22;226;48.606;9.096;2022-11-20T15:05:44;7.20;56.90
480;DHT22;226;48.606;9.096;2022-11-20T15:08:14;7.10;59.50
480;DHT22;226;48.606;9.096;2022-11-20T15:10:46;7.20;60.20
480;DHT22;226;48.606;9.096;2022-11-20T15:13:17;7.10;58.00
480;DHT22;226;48.606;9.096;2022-11-20T15:15:50;7.10;58.60
480;DHT22;226;48.606;9.096;2022-11-20T15:18:21;7.10;61.10
480;DHT22;226;48.606;9.096;2022-11-20T15:20:51;7.10;59.70
480;DHT22;226;48.606;9.096;2022-11-20T15:23:19;7.10;60.70
480;DHT22;226;48.606;9.096;2022-11-20T15:25:48;7.10;61.30
480;DHT22;226;48.606;9.096;2022-11-20T15:28:19;7.10;60.00
480;DHT22;226;48.606;9.096;2022-11-20T15:30:49;7.10;61.50
480;DHT22;226;48.606;9.096;2022-11-20T15:33:18;7.00;61.60
480;DHT22;226;48.606;9.096;2022-11-20T15:35:48;7.00;62.20
480;DHT22;226;48.606;9.096;2022-11-20T15:38:16;7.00;64.30
480;DHT22;226;48.606;9.096;2022-11-20T15:40:44;7.00;65.10
480;DHT22;226;48.606;9.096;2022-11-20T15:43:12;7.20;66.00
480;DHT22;226;48.606;9.096;2022-11-20T15:45:42;7.00;65.70
480;DHT22;226;48.606;9.096;2022-11-20T15:48:13;7.00;64.70
480;DHT22;226;48.606;9.096;2022-11-20T15:50:50;6.90;64.90
480;DHT22;226;48.606;9.096;2022-11-20T15:53:20;6.90;66.30
480;DHT22;226;48.606;9.096;2022-11-20T15:55:48;6.80;64.10
480;DHT22;226;48.606;9.096;2022-11-20T15:58:16;6.90;62.10
480;DHT22;226;48.606;9.096;2022-11-20T16:00:45;6.80;63.40
480;DHT22;226;48.606;9.096;2022-11-20T16:03:14;6.80;65.00
480;DHT22;226;48.606;9.096;2022-11-20T16:05:42;6.90;66.60
480;DHT22;226;48.606;9.096;2022-11-20T16:08:12;6.80;67.50
480;DHT22;226;48.606;9.096;2022-11-20T16:10:40;6.90;68.30
480;DHT22;226;48.606;9.096;2022-11-20T16:13:13;6.90;68.60
480;DHT22;226;48.606;9.096;2022-11-20T16:16:02;7.00;67.80
480;DHT22;226;48.606;9.096;2022-11-20T16:18:32;7.30;68.60
480;DHT22;226;48.606;9.096;2022-11-20T16:21:00;7.10;68.20
480;DHT22;226;48.606;9.096;2022-11-20T16:23:30;7.20;68.50
480;DHT22;226;48.606;9.096;2022-11-20T16:25:58;7.10;65.80
480;DHT22;226;48.606;9.096;2022-11-20T16:28:25;7.10;65.30
480;DHT22;226;48.606;9.096;2022-11-20T16:30:53;7.10;65.10
480;DHT22;226;48.606;9.096;2022-11-20T16:33:21;7.00;62.20
480;DHT22;226;48.606;9.096;2022-11-20T16:35:49;6.90;63.30
480;DHT22;226;48.606;9.096;2022-11-20T16:38:17;6.80;65.10
480;DHT22;226;48.606;9.096;2022-11-20T16:40:47;6.60;65.70
480;DHT22;226;48.606;9.096;2022-11-20T16:43:15;6.50;66.50
480;DHT22;226;48.606;9.096;2022-11-20T16:45:44;6.60;69.20
480;DHT22;226;48.606;9.096;2022-11-20T16:48:13;6.60;69.70
480;DHT22;226;48.606;9.096;2022-11-20T16:50:45;6.60;63.60
480;DHT22;226;48.606;9.096;2022-11-20T16:53:14;7.10;61.60
480;DHT22;226;48.606;9.096;2022-11-20T16:55:42;6.50;62.60
480;DHT22;226;48.606;9.096;2022-11-20T16:58:12;6.50;64.40
480;DHT22;226;48.606;9.096;2022-11-20T17:00:41;6.60;65.20
480;DHT22;226;48.606;9.096;2022-11-20T17:03:17;6.60;58.60
480;DHT22;226;48.606;9.096;2022-11-20T17:05:45;6.70;58.20
480;DHT22;226;48.606;9.096;2022-11-20T17:08:13;7.00;57.70
480;DHT22;226;48.606;9.096;2022-11-20T17:10:41;6.60;57.20
480;DHT22;226;48.606;9.096;2022-11-20T17:13:09;6.70;55.90
480;DHT22;226;48.606;9.096;2022-11-20T17:15:38;6.70;57.60
480;DHT22;226;48.606;9.096;2022-11-20T17:18:06;6.70;53.50
480;DHT22;226;48.606;9.096;2022-11-20T17:20:34;6.80;55.30
480;DHT22;226;48.606;9.096;2022-11-20T17:23:02;6.90;54.70
480;DHT22;226;48.606;9.096;2022-11-20T17:25:32;6.60;54.70
480;DHT22;226;48.606;9.096;2022-11-20T17:28:00;7.00;53.60
480;DHT22;226;48.606;9.096;2022-11-20T17:30:28;7.00;53.90
480;DHT22;226;48.606;9.096;2022-11-20T17:32:57;6.70;51.50
480;DHT22;226;48.606;9.096;2022-11-20T17:35:25;6.80;52.60